Time;durP1;ratioP1;P1;durP2;ratioP2;P2;SDS_P1;SDS_P2;PMS_P1;PMS_P2;Temp;Humidity;BMP_temperature;BMP_pressure;BME280_temperature;BME280_humidity;BME280_pressure;Samples;Min_cycle;Max_cycle;Signal;HPM_P1;HPM_P2
2021/01/31 00:00:39;;;;;;;31.15;6.72;;;21.30;99.90;;;;;;5035817;28;20484;-83
2021/01/31 00:03:09;;;;;;;36.22;7.50;;;21.30;99.90;;;;;;5041028;28;20544;-89
2021/01/31 00:05:37;;;;;;;34.35;6.88;;;21.30;99.90;;;;;;5015864;28;20393;-89
2021/01/31 00:08:06;;;;;;;35.30;7.78;;;21.30;99.90;;;;;;5037099;28;20424;-87
2021/01/31 00:10:37;;;;;;;32.77;7.70;;;21.20;99.90;;;;;;5049230;28;20467;-89
2021/01/31 00:13:25;;;;;;;31.98;7.03;;;21.10;99.90;;;;;;5030115;28;20910;-88
2021/01/31 00:16:01;;;;;;;35.53;7.28;;;21.10;99.90;;;;;;5001690;28;20435;-90
2021/01/31 00:18:34;;;;;;;36.15;7.57;;;21.10;99.90;;;;;;5015749;28;20386;-92
2021/01/31 00:21:27;;;;;;;30.45;6.90;;;21.00;99.90;;;;;;5040972;28;20376;-93
2021/01/31 00:23:54;;;;;;;33.85;7.30;;;21.10;99.90;;;;;;5043099;28;20415;-89
2021/01/31 00:26:21;;;;;;;30.17;7.55;;;21.10;99.90;;;;;;5019471;28;20432;-90
2021/01/31 00:29:10;;;;;;;37.10;7.60;;;21.10;99.90;;;;;;5038462;28;20502;-91
2021/01/31 00:34:28;;;;;;;29.65;6.22;;;21.20;99.90;;;;;;5039301;28;20439;-90
2021/01/31 00:37:01;;;;;;;34.60;6.85;;;21.20;99.90;;;;;;5023733;28;20389;-91
2021/01/31 00:39:34;;;;;;;28.23;6.55;;;21.20;99.90;;;;;;5030250;28;20498;-88
2021/01/31 00:42:04;;;;;;;31.63;6.72;;;21.30;99.90;;;;;;5038687;28;20476;-89
2021/01/31 00:44:31;;;;;;;29.67;6.20;;;21.20;99.90;;;;;;5036351;28;20761;-86
2021/01/31 00:47:05;;;;;;;28.95;6.30;;;21.20;99.90;;;;;;5023390;28;20411;-92
2021/01/31 00:50:19;;;;;;;29.55;6.72;;;21.20;99.90;;;;;;5024899;28;20839;-89
2021/01/31 00:52:45;;;;;;;29.33;6.03;;;21.10;99.90;;;;;;5036104;28;20409;-85
2021/01/31 00:55:13;;;;;;;33.50;7.13;;;21.10;99.90;;;;;;5035235;28;20393;-86
2021/01/31 00:57:40;;;;;;;30.55;6.78;;;21.10;99.90;;;;;;5017513;28;20608;-89
2021/01/31 01:00:29;;;;;;;31.05;7.07;;;21.10;99.90;;;;;;5018181;28;20496;-85
2021/01/31 01:02:56;;;;;;;31.73;6.82;;;21.10;99.90;;;;;;5039539;28;20467;-87
2021/01/31 01:05:26;;;;;;;29.17;6.57;;;21.10;99.90;;;;;;5042759;28;20428;-86
2021/01/31 01:08:02;;;;;;;23.80;5.37;;;21.20;99.90;;;;;;5041307;28;20384;-88
2021/01/31 01:10:32;;;;;;;29.00;6.18;;;21.20;99.90;;;;;;5031515;28;20396;-88
2021/01/31 01:13:04;;;;;;;27.08;6.25;;;21.10;99.90;;;;;;5016466;28;20589;-87
2021/01/31 01:15:37;;;;;;;24.73;6.15;;;21.10;99.90;;;;;;5024432;28;20442;-88
2021/01/31 01:18:16;;;;;;;29.08;6.82;;;21.00;99.90;;;;;;5021757;28;20392;-86
2021/01/31 01:21:13;;;;;;;33.80;6.35;;;21.00;99.90;;;;;;5013516;28;20426;-86
2021/01/31 01:23:41;;;;;;;34.77;6.67;;;21.00;99.90;;;;;;5020567;28;20391;-87
2021/01/31 02:01:12;;;;;;;32.30;6.22;;;20.90;99.90;;;;;;4975246;28;20461;-85
2021/01/31 02:04:06;;;;;;;;;;;;;;;;;;;;;
2021/01/31 02:07:07;;;;;;;25.92;5.25;;;20.90;99.90;;;;;;5064503;28;20378;-85
2021/01/31 02:09:35;;;;;;;26.10;6.30;;;20.90;99.90;;;;;;5058414;28;20449;-84
2021/01/31 02:12:05;;;;;;;23.83;6.05;;;20.90;99.90;;;;;;5036834;28;20409;-86
2021/01/31 02:15:05;;;;;;;22.42;5.53;;;21.00;99.90;;;;;;5029395;28;20419;-86
2021/01/31 02:17:47;;;;;;;30.50;5.43;;;20.90;99.90;;;;;;5051815;28;20891;-86
2021/01/31 02:20:32;;;;;;;24.52;5.20;;;20.90;99.90;;;;;;5046585;28;20608;-85
2021/01/31 02:23:33;;;;;;;26.60;6.00;;;20.90;99.90;;;;;;5039270;28;20912;-85
2021/01/31 02:26:08;;;;;;;26.50;6.23;;;21.00;99.90;;;;;;5057019;28;20393;-85
2021/01/31 02:28:56;;;;;;;25.58;5.68;;;21.00;99.90;;;;;;5034701;28;20379;-85
2021/01/31 02:31:47;;;;;;;25.88;5.07;;;21.00;99.90;;;;;;5056768;28;20399;-86
2021/01/31 02:38:30;;;;;;;27.23;5.83;;;20.90;99.90;;;;;;4947871;28;20380;-88
2021/01/31 02:41:37;;;;;;;24.85;5.40;;;20.80;99.90;;;;;;4950660;28;20415;-87
2021/01/31 02:44:46;;;;;;;26.30;5.30;;;20.90;99.90;;;;;;4965970;28;20440;-87
2021/01/31 02:47:23;;;;;;;26.13;5.03;;;21.00;99.90;;;;;;4881859;29;20496;-86
2021/01/31 02:50:26;;;;;;;29.97;5.73;;;20.90;99.90;;;;;;4978113;28;20469;-86
2021/01/31 02:53:28;;;;;;;21.98;4.75;;;20.80;99.90;;;;;;4951956;28;20451;-87
2021/01/31 02:56:47;;;;;;;;;;;;;;;;;;;;;
2021/01/31 02:59:41;;;;;;;23.13;5.15;;;20.70;99.90;;;;;;5040693;28;20394;-88
2021/01/31 03:02:50;;;;;;;25.60;5.15;;;20.70;99.90;;;;;;5034246;28;20394;-86
2021/01/31 03:05:26;;;;;;;29.13;5.95;;;20.70;99.90;;;;;;5048981;28;20906;-87
2021/01/31 03:08:25;;;;;;;27.35;5.18;;;20.60;99.90;;;;;;5039957;28;20402;-86
2021/01/31 03:11:12;;;;;;;31.80;5.35;;;20.60;99.90;;;;;;5050248;28;20395;-87
2021/01/31 03:14:26;;;;;;;25.48;4.57;;;20.60;99.90;;;;;;5058881;28;20406;-88
2021/01/31 03:16:59;;;;;;;25.67;5.27;;;20.50;99.90;;;;;;5025702;28;20384;-86
2021/01/31 03:20:09;;;;;;;;;;;;;;;;;;;;;
2021/01/31 04:22:53;;;;;;;28.27;5.50;;;20.40;99.90;;;;;;4881948;29;20479;-90
2021/01/31 04:28:31;;;;;;;34.58;5.82;;;20.30;99.90;;;;;;4871774;29;20507;-89
2021/01/31 04:31:17;;;;;;;25.25;5.10;;;20.30;99.90;;;;;;4875348;29;20779;-89
2021/01/31 04:34:13;;;;;;;;;;;;;;;;;;;;;
2021/01/31 04:37:25;;;;;;;24.98;5.10;;;20.40;99.90;;;;;;4874132;29;20422;-87
2021/01/31 04:44:02;;;;;;;28.40;5.38;;;20.30;99.90;;;;;;4815363;29;20397;-88
2021/01/31 04:47:22;;;;;;;30.73;5.65;;;20.30;99.90;;;;;;4862519;29;20922;-88
2021/01/31 04:53:59;;;;;;;21.52;4.90;;;20.30;99.90;;;;;;4875353;29;20510;-88
2021/01/31 05:24:16;;;;;;;;;;;;;;;;;;;;;
2021/01/31 05:27:02;;;;;;;23.77;5.55;;;19.90;99.90;;;;;;4976237;28;20405;-90
2021/01/31 05:30:13;;;;;;;25.20;5.80;;;19.90;99.90;;;;;;4952434;28;20501;-88
2021/01/31 05:33:34;;;;;;;20.20;4.78;;;19.90;99.90;;;;;;4964799;28;20481;-90
2021/01/31 05:36:13;;;;;;;27.45;5.15;;;19.90;99.90;;;;;;4954836;28;20469;-89
2021/01/31 06:30:23;;;;;;;27.73;5.10;;;19.90;99.90;;;;;;5605981;23;20516;-91
2021/01/31 06:32:53;;;;;;;25.33;4.93;;;19.90;99.90;;;;;;4971766;28;20425;-93
2021/01/31 06:35:23;;;;;;;25.27;4.70;;;19.90;99.90;;;;;;4970535;28;20746;-91
2021/01/31 06:38:47;;;;;;;26.88;5.15;;;19.90;99.90;;;;;;4977572;28;20460;-90
2021/01/31 06:41:41;;;;;;;26.90;4.82;;;19.90;99.90;;;;;;4957155;28;20421;-92
2021/01/31 06:44:44;;;;;;;22.20;4.10;;;19.90;99.90;;;;;;4974743;28;20386;-90
2021/01/31 06:47:29;;;;;;;25.08;4.38;;;20.00;99.90;;;;;;4966393;28;20452;-91
2021/01/31 06:50:39;;;;;;;25.10;4.68;;;20.00;99.90;;;;;;4969852;28;20394;-91
2021/01/31 06:53:50;;;;;;;21.33;4.63;;;20.00;99.90;;;;;;4969376;28;20941;-93
2021/01/31 06:56:54;;;;;;;22.13;4.30;;;20.00;99.90;;;;;;4955774;28;20755;-91
2021/01/31 07:13:19;;;;;;;25.45;4.32;;;20.00;99.90;;;;;;4926110;29;20514;-88
2021/01/31 07:16:18;;;;;;;28.38;4.85;;;20.00;99.90;;;;;;4896534;29;20483;-87
2021/01/31 07:18:57;;;;;;;24.58;4.60;;;20.00;99.90;;;;;;4966109;28;20402;-89
2021/01/31 07:21:48;;;;;;;24.50;4.25;;;20.00;99.90;;;;;;4971614;28;20382;-89
2021/01/31 07:24:53;;;;;;;24.35;4.65;;;19.90;99.90;;;;;;4974935;28;20394;-87
2021/01/31 07:27:56;;;;;;;26.17;4.78;;;19.90;99.90;;;;;;4968522;28;20401;-90
2021/01/31 07:30:58;;;;;;;21.83;4.00;;;19.80;99.90;;;;;;4933237;28;20486;-89
2021/01/31 07:34:24;;;;;;;34.03;4.68;;;19.80;99.90;;;;;;4968953;28;20446;-90
2021/01/31 07:49:09;;;;;;;26.92;4.50;;;19.60;99.90;;;;;;5005980;23;20427;-88
2021/01/31 07:52:05;;;;;;;23.25;4.30;;;19.60;99.90;;;;;;4935983;29;20954;-89
2021/01/31 07:55:25;;;;;;;;;;;;;;;;;;;;;
2021/01/31 08:01:31;;;;;;;24.42;4.18;;;19.50;99.90;;;;;;4924270;29;20392;-89
2021/01/31 08:04:20;;;;;;;28.83;4.35;;;19.50;99.90;;;;;;4907520;29;20877;-88
2021/01/31 08:06:57;;;;;;;20.17;4.18;;;19.50;99.90;;;;;;4933150;29;20945;-88
2021/01/31 08:09:27;;;;;;;26.53;4.20;;;19.40;99.90;;;;;;4950957;28;20560;-86
2021/01/31 08:12:04;;;;;;;26.13;3.83;;;19.30;99.90;;;;;;4941952;23;20435;-88
2021/01/31 08:15:20;;;;;;;21.42;4.05;;;19.40;99.90;;;;;;4951528;28;20443;-89
2021/01/31 08:18:01;;;;;;;21.58;4.00;;;19.30;99.90;;;;;;4954210;28;20412;-85
2021/01/31 08:20:34;;;;;;;17.50;3.38;;;19.30;99.90;;;;;;4954241;28;20396;-88
2021/01/31 08:23:29;;;;;;;13.00;3.05;;;19.40;99.90;;;;;;4955958;28;20458;-86
2021/01/31 08:26:39;;;;;;;22.08;3.38;;;19.30;99.90;;;;;;4939041;29;20390;-86
2021/01/31 08:29:24;;;;;;;17.83;3.53;;;19.30;99.90;;;;;;4948644;29;20576;-87
2021/01/31 08:32:39;;;;;;;;;;;;;;;;;;;;;
2021/01/31 08:35:58;;;;;;;18.23;3.20;;;19.40;99.90;;;;;;4868157;29;20771;-87
2021/01/31 08:38:31;;;;;;;17.65;3.15;;;19.30;99.90;;;;;;4946722;28;20418;-89
2021/01/31 08:41:08;;;;;;;23.67;3.70;;;19.30;99.90;;;;;;4950722;29;20380;-88
2021/01/31 08:44:38;;;;;;;23.48;3.40;;;19.30;99.90;;;;;;4949058;28;20411;-89
2021/01/31 08:47:12;;;;;;;20.27;3.30;;;19.30;99.90;;;;;;4896576;29;20496;-88
2021/01/31 08:49:54;;;;;;;20.83;3.22;;;19.30;99.90;;;;;;4890737;29;20613;-87
2021/01/31 08:52:23;;;;;;;25.33;3.88;;;19.20;99.90;;;;;;4927469;29;20461;-86
2021/01/31 08:55:01;;;;;;;18.85;3.17;;;19.20;99.90;;;;;;4947070;29;20404;-87
2021/01/31 08:57:31;;;;;;;21.80;3.58;;;19.20;99.90;;;;;;4949968;29;20493;-87
2021/01/31 09:00:08;;;;;;;18.55;3.15;;;19.20;99.90;;;;;;4950899;29;20455;-86
2021/01/31 09:02:44;;;;;;;17.95;3.03;;;19.10;99.90;;;;;;4948653;28;20400;-88
2021/01/31 09:05:20;;;;;;;18.50;3.50;;;19.20;99.90;;;;;;4952313;28;20839;-85
2021/01/31 09:07:50;;;;;;;25.27;3.95;;;19.20;99.90;;;;;;4953271;28;20410;-86
2021/01/31 09:10:44;;;;;;;24.15;4.10;;;19.20;99.90;;;;;;4932060;29;20500;-86
2021/01/31 09:13:25;;;;;;;22.60;3.87;;;19.20;99.90;;;;;;4958162;28;20487;-86
2021/01/31 09:15:54;;;;;;;22.80;4.17;;;19.30;99.90;;;;;;4948651;28;20416;-86
2021/01/31 09:18:24;;;;;;;27.65;4.70;;;19.30;99.90;;;;;;4950314;29;20392;-86
2021/01/31 09:20:52;;;;;;;28.30;4.28;;;19.30;99.90;;;;;;4949827;29;20388;-86
2021/01/31 09:23:46;;;;;;;27.63;4.80;;;19.30;99.90;;;;;;4948495;28;20759;-86
2021/01/31 09:26:19;;;;;;;33.90;4.85;;;19.30;99.90;;;;;;4946656;28;20410;-86
2021/01/31 09:29:08;;;;;;;27.73;5.30;;;19.30;99.90;;;;;;4947155;28;20458;-86
2021/01/31 09:32:04;;;;;;;33.00;5.50;;;19.30;99.90;;;;;;4903307;28;20400;-89
2021/01/31 09:41:15;;;;;;;35.22;5.20;;;19.30;99.90;;;;;;4870580;29;20419;-88
2021/01/31 09:43:45;;;;;;;30.38;4.95;;;19.40;99.90;;;;;;4874541;29;20896;-88
2021/01/31 09:46:16;;;;;;;31.60;4.55;;;19.40;99.90;;;;;;4870849;29;20397;-89
2021/01/31 09:48:44;;;;;;;33.33;4.68;;;19.40;99.90;;;;;;4905419;29;20775;-88
2021/01/31 09:51:24;;;;;;;31.75;5.38;;;19.40;99.90;;;;;;4949646;28;20407;-89
2021/01/31 09:53:52;;;;;;;33.33;4.82;;;19.40;99.90;;;;;;4936131;28;21323;-88
2021/01/31 09:56:48;;;;;;;28.48;4.57;;;19.50;99.90;;;;;;4951972;29;20467;-88
2021/01/31 09:59:30;;;;;;;28.05;4.60;;;19.50;99.90;;;;;;4947800;29;20901;-88
2021/01/31 10:02:11;;;;;;;27.92;4.40;;;19.50;99.90;;;;;;4949667;29;20423;-88
2021/01/31 10:04:41;;;;;;;28.98;4.22;;;19.50;99.90;;;;;;4951967;29;20410;-87
2021/01/31 10:07:10;;;;;;;35.95;4.93;;;19.50;99.90;;;;;;4952091;29;20915;-87
2021/01/31 10:09:42;;;;;;;32.97;4.85;;;19.50;99.90;;;;;;4934571;29;20926;-87
2021/01/31 10:12:17;;;;;;;32.75;4.60;;;19.50;99.90;;;;;;4951104;29;20815;-87
2021/01/31 10:14:49;;;;;;;36.07;5.30;;;19.50;99.90;;;;;;4952688;29;20448;-88
2021/01/31 10:17:52;;;;;;;29.70;4.45;;;19.50;99.90;;;;;;4946841;29;20388;-88
2021/01/31 10:20:43;;;;;;;27.52;4.53;;;19.50;99.90;;;;;;4920952;29;20487;-88
2021/01/31 10:23:24;;;;;;;25.83;4.65;;;19.50;99.90;;;;;;4950714;29;20400;-86
2021/01/31 10:26:12;;;;;;;24.45;4.50;;;19.50;99.90;;;;;;4931992;28;20389;-87
2021/01/31 10:29:04;;;;;;;23.67;4.13;;;19.50;99.90;;;;;;4933911;28;20396;-88
2021/01/31 10:31:56;;;;;;;30.77;4.93;;;19.50;99.90;;;;;;4950712;28;20678;-87
2021/01/31 10:41:10;;;;;;;;;;;;;;;;;;;;;
2021/01/31 10:44:35;;;;;;;;;;;;;;;;;;;;;
2021/01/31 10:48:09;;;;;;;;;;;;;;;;;;;;;
2021/01/31 11:30:29;;;;;;;27.38;4.40;;;19.40;99.90;;;;;;4853696;23;20414;-86
2021/01/31 11:33:06;;;;;;;24.38;3.70;;;19.40;99.90;;;;;;4952088;28;20509;-87
2021/01/31 11:35:40;;;;;;;28.07;4.10;;;19.40;99.90;;;;;;4968877;28;20382;-87
2021/01/31 11:41:30;;;;;;;23.38;4.07;;;19.30;99.90;;;;;;4960094;28;20465;-88
2021/01/31 11:44:16;;;;;;;;;;;;;;;;;;;;;
2021/01/31 11:46:44;;;;;;;24.48;3.85;;;19.30;99.90;;;;;;4965071;28;20398;-88
2021/01/31 11:49:21;;;;;;;;;;;;;;;;;;;;;
2021/01/31 11:55:02;;;;;;;26.33;4.07;;;19.30;99.90;;;;;;4958181;28;20390;-87
2021/01/31 11:57:37;;;;;;;30.15;4.05;;;19.30;99.90;;;;;;4973388;28;20493;-88
2021/01/31 12:00:06;;;;;;;23.92;3.75;;;19.30;99.90;;;;;;4952794;28;20394;-88
2021/01/31 12:02:36;;;;;;;25.02;3.85;;;19.20;99.90;;;;;;4957605;28;20786;-88
2021/01/31 12:05:12;;;;;;;32.00;4.35;;;19.20;99.90;;;;;;4973477;28;20409;-94
2021/01/31 12:07:39;;;;;;;29.42;3.95;;;19.20;99.90;;;;;;4953017;28;20406;-85
2021/01/31 12:10:32;;;;;;;;;;;;;;;;;;;;;
2021/01/31 12:13:11;;;;;;;25.38;3.20;;;19.20;99.90;;;;;;4971232;28;20406;-86
2021/01/31 12:15:41;;;;;;;26.33;3.97;;;19.20;99.90;;;;;;4954031;28;20410;-86
2021/01/31 12:18:32;;;;;;;26.50;3.95;;;19.20;99.90;;;;;;4950100;28;20391;-87
2021/01/31 12:21:27;;;;;;;25.40;4.18;;;19.20;99.90;;;;;;4948384;28;20929;-87
2021/01/31 12:24:13;;;;;;;;;;;;;;;;;;;;;
2021/01/31 12:30:11;;;;;;;;;;;;;;;;;;;;;
2021/01/31 12:33:04;;;;;;;;;;;;;;;;;;;;;
2021/01/31 12:35:41;;;;;;;23.75;3.90;;;19.30;99.90;;;;;;4940473;29;20408;-88
2021/01/31 12:38:11;;;;;;;25.95;3.85;;;19.30;99.90;;;;;;4947215;29;20395;-87
2021/01/31 12:40:42;;;;;;;25.83;3.72;;;19.20;99.90;;;;;;4943049;28;20930;-88
2021/01/31 12:43:18;;;;;;;30.17;4.00;;;19.20;99.90;;;;;;4941116;28;20487;-87
2021/01/31 12:45:45;;;;;;;28.90;3.85;;;19.30;99.90;;;;;;4940071;29;20408;-86
2021/01/31 12:48:18;;;;;;;24.67;3.53;;;19.30;99.90;;;;;;4938286;29;20404;-87
2021/01/31 12:51:01;;;;;;;;;;;;;;;;;;;;;
2021/01/31 12:53:40;;;;;;;26.07;3.57;;;19.30;99.90;;;;;;4949822;28;20485;-87
2021/01/31 12:56:22;;;;;;;29.23;3.75;;;19.30;99.90;;;;;;4959561;28;20392;-87
2021/01/31 12:59:21;;;;;;;;;;;;;;;;;;;;;
2021/01/31 13:01:58;;;;;;;26.52;4.00;;;19.40;99.90;;;;;;4958196;28;21176;-87
2021/01/31 13:08:15;;;;;;;;;;;;;;;;;;;;;
2021/01/31 13:11:08;;;;;;;21.20;3.45;;;19.40;99.90;;;;;;4896610;29;20410;-87
2021/01/31 13:14:26;;;;;;;23.03;3.73;;;19.40;99.90;;;;;;4861231;29;20461;-87
2021/01/31 13:17:56;;;;;;;;;;;;;;;;;;;;;
2021/01/31 13:31:02;;;;;;;;;;;;;;;;;;;;;
2021/01/31 13:34:31;;;;;;;;;;;;;;;;;;;;;
2021/01/31 13:38:07;;;;;;;;;;;;;;;;;;;;;
2021/01/31 13:44:51;;;;;;;22.80;3.37;;;19.60;99.90;;;;;;4742101;30;20427;-88
2021/01/31 13:48:15;;;;;;;;;;;;;;;;;;;;;
2021/01/31 18:51:27;;;;;;;17.30;3.10;;;19.30;99.90;;;;;;5702460;23;20710;-90
2021/01/31 18:53:57;;;;;;;12.07;2.07;;;19.30;99.90;;;;;;4875145;29;20509;-91
2021/01/31 18:56:24;;;;;;;15.87;2.50;;;19.30;99.90;;;;;;4893984;29;20397;-88
2021/01/31 18:58:51;;;;;;;16.77;2.45;;;19.30;99.90;;;;;;4893501;29;20745;-90
2021/01/31 19:01:30;;;;;;;15.90;2.40;;;19.40;99.90;;;;;;4887554;29;20411;-88
2021/01/31 19:05:24;;;;;;;;;;;;;;;;;;;;;
2021/01/31 19:17:13;;;;;;;15.30;2.92;;;19.30;99.90;;;;;;4863298;29;20746;-89
2021/01/31 19:19:43;;;;;;;15.15;2.97;;;19.30;99.90;;;;;;4875658;29;20492;-89
2021/01/31 19:22:10;;;;;;;16.25;2.60;;;19.30;99.90;;;;;;4874929;29;20409;-89
2021/01/31 19:24:37;;;;;;;16.23;2.63;;;19.30;99.90;;;;;;4893428;29;20397;-90
2021/01/31 19:27:05;;;;;;;16.90;2.70;;;19.30;99.90;;;;;;4893609;29;20472;-89
2021/01/31 19:29:32;;;;;;;18.45;2.63;;;19.30;99.90;;;;;;4891786;29;20905;-89
2021/01/31 19:31:59;;;;;;;14.20;3.05;;;19.20;99.90;;;;;;4893784;29;20464;-89
2021/01/31 19:34:27;;;;;;;12.50;2.10;;;19.10;99.90;;;;;;4885443;29;20913;-89
2021/01/31 19:36:54;;;;;;;19.45;2.63;;;19.10;99.90;;;;;;4893803;29;20456;-90
2021/01/31 19:39:21;;;;;;;16.90;2.50;;;19.10;99.90;;;;;;4892006;29;20437;-89
2021/01/31 19:41:49;;;;;;;20.98;2.55;;;19.20;99.90;;;;;;4893568;29;20481;-89
2021/01/31 19:44:16;;;;;;;14.20;2.10;;;19.20;99.90;;;;;;4893345;29;20468;-89
2021/01/31 19:46:43;;;;;;;17.90;2.53;;;19.30;99.90;;;;;;4887498;29;20423;-89
2021/01/31 19:49:10;;;;;;;16.10;2.30;;;19.30;99.90;;;;;;4892608;29;20457;-89
2021/01/31 19:51:37;;;;;;;13.20;2.40;;;19.40;99.90;;;;;;4878546;29;20413;-90
2021/01/31 19:54:04;;;;;;;20.23;2.53;;;19.50;99.90;;;;;;4892848;29;20420;-90
2021/01/31 19:56:36;;;;;;;14.55;2.33;;;19.50;99.90;;;;;;4892933;29;20456;-90
2021/01/31 19:59:03;;;;;;;18.08;2.60;;;19.50;99.90;;;;;;4892883;29;20408;-90
2021/01/31 20:01:30;;;;;;;17.23;2.22;;;19.50;99.90;;;;;;4892779;29;20390;-90
2021/01/31 20:03:59;;;;;;;14.53;2.13;;;19.60;99.90;;;;;;4892715;29;20406;-90
2021/01/31 20:06:26;;;;;;;12.35;2.53;;;19.60;99.90;;;;;;4893309;29;20389;-88
2021/01/31 20:08:54;;;;;;;16.55;2.70;;;19.50;99.90;;;;;;4892527;29;20393;-90
2021/01/31 20:11:23;;;;;;;16.40;2.50;;;19.50;99.90;;;;;;4892823;29;20393;-90
2021/01/31 20:13:53;;;;;;;13.15;2.25;;;19.40;99.90;;;;;;4896112;29;20441;-91
2021/01/31 20:16:21;;;;;;;19.30;2.55;;;19.40;99.90;;;;;;4897136;29;20393;-90
2021/01/31 20:18:50;;;;;;;13.20;2.20;;;19.40;99.90;;;;;;4897308;29;20434;-89
2021/01/31 20:21:17;;;;;;;16.23;2.35;;;19.50;99.90;;;;;;4911917;29;20408;-90
2021/01/31 20:23:47;;;;;;;15.50;2.50;;;19.50;99.90;;;;;;4884087;29;20494;-90
2021/01/31 20:26:15;;;;;;;9.18;2.00;;;19.50;99.90;;;;;;4878699;29;20391;-89
2021/01/31 20:28:42;;;;;;;13.32;2.08;;;19.60;99.90;;;;;;4908812;29;20413;-89
2021/01/31 20:31:10;;;;;;;14.20;2.58;;;19.70;99.90;;;;;;4879293;29;20393;-91
2021/01/31 20:33:37;;;;;;;20.60;2.70;;;19.80;99.90;;;;;;4895971;29;20444;-90
2021/01/31 20:36:16;;;;;;;14.35;2.38;;;19.80;99.90;;;;;;4895692;29;20397;-89
2021/01/31 20:38:43;;;;;;;14.27;2.40;;;19.90;99.90;;;;;;4883819;29;20489;-90
2021/01/31 20:41:11;;;;;;;15.45;2.47;;;19.90;99.90;;;;;;4877150;29;20443;-90
2021/01/31 20:43:38;;;;;;;15.88;2.60;;;20.00;99.90;;;;;;4877311;29;20471;-90
2021/01/31 20:46:08;;;;;;;9.65;2.45;;;20.00;99.90;;;;;;4877059;29;20434;-94
2021/01/31 20:48:35;;;;;;;11.53;2.20;;;20.10;99.90;;;;;;4877802;29;20407;-89
2021/01/31 20:51:02;;;;;;;14.50;2.22;;;20.20;99.90;;;;;;4893046;29;20783;-91
2021/01/31 20:53:30;;;;;;;16.65;3.00;;;20.30;99.90;;;;;;4896102;29;20838;-90
2021/01/31 20:55:57;;;;;;;14.40;2.28;;;20.30;99.90;;;;;;4895157;29;20416;-89
2021/01/31 20:58:24;;;;;;;11.95;2.58;;;20.30;99.90;;;;;;4895011;29;20390;-89
2021/01/31 21:00:51;;;;;;;16.37;2.50;;;20.40;99.90;;;;;;4894923;29;20481;-89
2021/01/31 21:03:18;;;;;;;13.97;2.60;;;20.50;99.90;;;;;;4895142;29;20390;-89
2021/01/31 21:05:47;;;;;;;14.30;2.58;;;20.60;99.90;;;;;;4894929;29;20430;-91
2021/01/31 21:08:54;;;;;;;;;;;;;;;;;;;;;
2021/01/31 21:11:21;;;;;;;19.98;2.60;;;20.50;99.90;;;;;;4896145;29;20402;-89
2021/01/31 21:13:48;;;;;;;14.52;2.67;;;20.50;99.90;;;;;;4896221;29;20425;-89
2021/01/31 21:16:16;;;;;;;16.23;2.83;;;20.50;99.90;;;;;;4894610;29;20953;-89
2021/01/31 21:18:43;;;;;;;12.88;2.42;;;20.50;99.90;;;;;;4894758;29;20896;-89
2021/01/31 21:21:10;;;;;;;18.33;2.80;;;20.60;99.90;;;;;;4910237;29;20398;-90
2021/01/31 21:23:37;;;;;;;15.17;2.57;;;20.60;99.90;;;;;;4894656;29;20515;-89
2021/01/31 21:26:04;;;;;;;16.10;2.40;;;20.70;99.90;;;;;;4894688;29;20414;-89
2021/01/31 21:28:31;;;;;;;12.35;2.67;;;20.60;99.90;;;;;;4894359;29;20925;-89
2021/01/31 21:30:59;;;;;;;15.10;2.90;;;20.70;99.90;;;;;;4895912;29;20421;-90
2021/01/31 21:33:26;;;;;;;11.38;2.42;;;20.70;99.90;;;;;;4894591;29;20424;-90
2021/01/31 21:35:53;;;;;;;11.88;2.70;;;20.80;99.90;;;;;;4894954;29;20481;-90
2021/01/31 21:38:20;;;;;;;13.02;1.85;;;20.90;99.90;;;;;;4894457;29;20504;-90
2021/01/31 21:40:47;;;;;;;11.87;2.30;;;21.00;99.90;;;;;;4894491;29;20488;-89
2021/01/31 21:43:14;;;;;;;11.45;2.28;;;21.00;99.90;;;;;;4894710;29;20393;-90
2021/01/31 21:45:41;;;;;;;14.52;2.22;;;21.10;99.90;;;;;;4894464;29;20404;-90
2021/01/31 21:48:08;;;;;;;14.65;3.22;;;21.00;99.90;;;;;;4894184;29;20405;-90
2021/01/31 21:50:37;;;;;;;11.85;2.40;;;21.00;99.90;;;;;;4894480;29;20480;-90
2021/01/31 21:53:04;;;;;;;11.55;2.22;;;21.10;99.90;;;;;;4894688;29;20770;-90
2021/01/31 21:55:31;;;;;;;13.18;2.70;;;21.30;99.90;;;;;;4893728;29;21090;-90
2021/01/31 21:57:58;;;;;;;12.77;2.55;;;21.30;99.90;;;;;;4893410;29;20909;-91
2021/01/31 22:00:30;;;;;;;15.52;2.47;;;21.50;99.90;;;;;;4893498;29;20416;-90
